La Plata, Missouri
Current Conditions -  °F | °C
As of 2:55 AM on Wednesday 26 Nov 2014 (Local Time) from KIRK Reporting Station
Overcast Overcast  
Wind Chill: 19°   Ceiling: 10000
Heat Index: 27°   Visibility: 10mi
Dew Point: 22°   Wind: 7mph
Humidity: 81%   Direction: 160°SSE
Pressure: 30.01"   Gusts: NA
Location:  40.02°N, 92.49°W
Report Text: KIRK 260855Z AUTO 16006KT 10SM OVC100 M03/M06 A3001 RMK AO2 SLP176 T10281056 55019
Loading
Personal Weather Stations






























Interactive Weather Map New forecast layout! Learn more

10-Day Weather Forecast

Advertisements
Track Severe Weather on mobile